Time;durP1;ratioP1;P1;durP2;ratioP2;P2;SDS_P1;SDS_P2;PMS_P1;PMS_P2;Temp;Humidity;BMP_temperature;BMP_pressure;BME280_temperature;BME280_humidity;BME280_pressure;Samples;Min_cycle;Max_cycle;Signal;HPM_P1;HPM_P2
2021/07/02 00:01:06;;;;;;;8.57;4.68;;;;;;;14.97;76.45;96382.50;5013126;28;20053;-73
2021/07/02 00:03:32;;;;;;;9.25;5.05;;;;;;;14.97;76.69;96383.31;5013686;28;20489;-73
2021/07/02 00:06:00;;;;;;;8.60;5.00;;;;;;;14.94;76.68;96384.03;5013436;28;20050;-73
2021/07/02 00:08:27;;;;;;;10.73;4.90;;;;;;;14.92;76.59;96380.00;5013275;28;20046;-73
2021/07/02 00:10:55;;;;;;;9.10;5.03;;;;;;;14.91;76.43;96381.16;5013691;28;20042;-73
2021/07/02 00:13:21;;;;;;;9.35;5.10;;;;;;;14.95;76.28;96373.84;5013074;28;20049;-73
2021/07/02 00:15:48;;;;;;;8.82;5.22;;;;;;;14.95;76.54;96379.34;5013397;28;20054;-74
2021/07/02 00:18:14;;;;;;;12.80;5.60;;;;;;;14.98;75.94;96373.97;5013025;28;20488;-73
2021/07/02 00:20:41;;;;;;;14.02;5.38;;;;;;;14.99;76.19;96377.50;5013101;28;20484;-73
2021/07/02 00:23:09;;;;;;;9.45;4.78;;;;;;;15.01;76.09;96372.47;5012637;28;20057;-72
2021/07/02 00:25:37;;;;;;;8.02;5.13;;;;;;;15.01;76.19;96373.25;5013125;28;20497;-73
2021/07/02 00:28:04;;;;;;;9.27;5.50;;;;;;;15.04;76.15;96377.25;5012786;28;20501;-73
2021/07/02 00:30:31;;;;;;;8.77;5.15;;;;;;;15.06;76.70;96375.75;5013047;28;20046;-73
2021/07/02 00:32:57;;;;;;;7.43;4.93;;;;;;;15.11;77.06;96377.47;5013026;28;20057;-73
2021/07/02 00:35:24;;;;;;;6.88;5.00;;;;;;;15.14;76.86;96377.59;5012474;28;20045;-73
2021/07/02 00:37:50;;;;;;;9.88;5.03;;;;;;;15.17;76.63;96376.06;5012873;28;20046;-73
2021/07/02 00:40:18;;;;;;;7.80;4.72;;;;;;;15.23;76.17;96369.19;5012495;28;20050;-74
2021/07/02 00:42:44;;;;;;;7.82;5.00;;;;;;;15.26;75.50;96365.78;5012834;28;20042;-73
2021/07/02 00:45:12;;;;;;;10.32;5.28;;;;;;;15.30;74.92;96363.94;5012309;28;20061;-73
2021/07/02 00:47:38;;;;;;;8.82;4.57;;;;;;;15.28;74.18;96365.41;5012917;28;20050;-73
2021/07/02 00:50:06;;;;;;;7.10;4.68;;;;;;;15.26;74.38;96367.72;5012028;28;20049;-73
2021/07/02 00:52:33;;;;;;;6.90;4.35;;;;;;;15.22;74.87;96362.13;5012565;28;20046;-73
2021/07/02 00:54:59;;;;;;;9.80;4.88;;;;;;;15.19;75.40;96362.00;5012537;28;20057;-73
2021/07/02 00:57:28;;;;;;;8.27;5.13;;;;;;;15.19;76.18;96362.81;5011879;28;20046;-74
2021/07/02 00:59:55;;;;;;;9.15;5.30;;;;;;;15.21;76.65;96371.50;5008579;28;20054;-73
2021/07/02 01:02:21;;;;;;;8.88;4.80;;;;;;;15.20;77.34;96369.91;5012310;28;20050;-73
2021/07/02 01:04:48;;;;;;;8.55;5.80;;;;;;;15.22;77.59;96356.63;5007035;28;20061;-73
2021/07/02 01:07:15;;;;;;;9.50;5.90;;;;;;;15.22;77.82;96356.63;5012089;28;20052;-74
2021/07/02 01:09:43;;;;;;;11.00;5.47;;;;;;;15.24;77.93;96351.59;5012416;28;20505;-73
2021/07/02 01:12:11;;;;;;;10.18;6.03;;;;;;;15.30;78.40;96352.97;5011910;28;20693;-73
2021/07/02 01:14:40;;;;;;;9.68;6.03;;;;;;;15.30;78.26;96358.44;5012603;28;20042;-74
2021/07/02 01:17:06;;;;;;;10.93;6.03;;;;;;;15.28;78.42;96366.22;5011892;28;20061;-74
2021/07/02 01:19:33;;;;;;;9.85;5.75;;;;;;;15.24;78.61;96365.31;5012193;28;20046;-73
2021/07/02 01:22:01;;;;;;;9.73;5.90;;;;;;;15.20;78.74;96364.41;5012159;28;20490;-74
2021/07/02 01:24:28;;;;;;;8.68;5.97;;;;;;;15.17;79.00;96358.81;5011981;28;20413;-73
2021/07/02 01:26:54;;;;;;;11.07;6.72;;;;;;;15.12;78.76;96357.91;5012288;28;20053;-73
2021/07/02 01:29:21;;;;;;;11.30;6.20;;;;;;;15.06;79.06;96358.50;5011844;28;20548;-73
2021/07/02 01:31:48;;;;;;;11.40;6.32;;;;;;;15.01;79.49;96356.81;5011890;28;20620;-73
2021/07/02 01:34:15;;;;;;;8.65;6.05;;;;;;;14.97;79.56;96350.41;5011250;28;20050;-74
2021/07/02 01:36:41;;;;;;;11.30;6.25;;;;;;;14.96;79.98;96359.00;5011716;28;20054;-73
2021/07/02 01:39:09;;;;;;;11.10;6.40;;;;;;;14.95;79.66;96362.88;5011226;28;20050;-73
2021/07/02 01:41:36;;;;;;;10.48;6.32;;;;;;;14.95;79.88;96354.66;5012074;28;20046;-73
2021/07/02 01:44:03;;;;;;;9.80;6.45;;;;;;;14.95;79.52;96351.91;5011753;28;20069;-73
2021/07/02 01:46:29;;;;;;;9.55;6.10;;;;;;;14.92;79.47;96352.59;5011815;28;20419;-74
2021/07/02 01:48:56;;;;;;;10.75;6.57;;;;;;;14.90;79.71;96352.16;5011586;28;20069;-74
2021/07/02 01:51:22;;;;;;;11.13;7.07;;;;;;;14.86;79.75;96355.56;5011215;28;20054;-74
2021/07/02 01:53:49;;;;;;;11.90;6.63;;;;;;;14.84;79.98;96357.88;5011779;28;20045;-74
2021/07/02 01:56:17;;;;;;;10.23;6.10;;;;;;;14.82;79.90;96360.13;5011145;28;20053;-73
2021/07/02 01:58:43;;;;;;;10.95;6.65;;;;;;;14.80;79.94;96362.44;5011693;28;20061;-73
2021/07/02 02:01:10;;;;;;;9.73;6.28;;;;;;;14.79;80.32;96369.06;5011241;28;20046;-73
2021/07/02 02:03:36;;;;;;;12.00;6.88;;;;;;;14.77;80.10;96357.66;5011320;28;20049;-74
2021/07/02 02:06:03;;;;;;;8.25;6.00;;;;;;;14.75;80.25;96348.97;5010994;28;20046;-74
2021/07/02 02:08:29;;;;;;;9.70;6.53;;;;;;;14.73;80.28;96345.78;5011470;28;20046;-74
2021/07/02 02:10:56;;;;;;;10.95;6.45;;;;;;;14.73;80.15;96351.25;5011480;28;20053;-74
2021/07/02 02:13:24;;;;;;;9.35;6.05;;;;;;;14.70;80.27;96348.41;5011120;28;20385;-73
2021/07/02 02:15:50;;;;;;;10.98;6.78;;;;;;;14.70;80.45;96343.72;5011462;28;20050;-73
2021/07/02 02:18:17;;;;;;;10.60;6.50;;;;;;;14.73;80.32;96340.31;5010930;28;20052;-74
2021/07/02 02:20:43;;;;;;;13.57;6.63;;;;;;;14.72;80.57;96344.19;5014059;28;20049;-73
2021/07/02 02:23:09;;;;;;;13.70;6.40;;;;;;;14.75;80.56;96340.75;5014926;28;20049;-74
2021/07/02 02:25:36;;;;;;;9.60;6.40;;;;;;;14.79;80.44;96344.41;5015465;28;20050;-73
2021/07/02 02:28:03;;;;;;;10.25;5.65;;;;;;;14.83;80.43;96339.03;5015045;28;20049;-73
2021/07/02 02:30:31;;;;;;;10.27;5.80;;;;;;;14.83;79.98;96337.09;5015298;28;20042;-74
2021/07/02 02:33:00;;;;;;;10.55;6.18;;;;;;;14.86;79.97;96344.59;5015212;28;20111;-73
2021/07/02 02:35:26;;;;;;;8.40;5.75;;;;;;;14.93;80.30;96340.47;5014888;28;20751;-74
2021/07/02 02:37:53;;;;;;;12.15;6.53;;;;;;;14.96;79.64;96342.53;5015212;28;20046;-75
2021/07/02 02:40:19;;;;;;;9.52;6.30;;;;;;;14.96;79.54;96351.56;5014748;28;20045;-73
2021/07/02 02:42:46;;;;;;;9.38;5.68;;;;;;;15.00;79.56;96343.44;5015202;28;20049;-74
2021/07/02 02:45:12;;;;;;;12.70;6.50;;;;;;;15.02;79.37;96346.63;5014775;28;20057;-73
2021/07/02 02:47:40;;;;;;;12.25;6.93;;;;;;;14.99;79.16;96348.13;5014951;28;20050;-74
2021/07/02 02:50:08;;;;;;;10.73;5.93;;;;;;;14.98;79.21;96345.72;5014546;28;20038;-73
2021/07/02 02:52:34;;;;;;;10.55;5.90;;;;;;;14.94;78.97;96350.31;5014869;28;20060;-76
2021/07/02 02:55:01;;;;;;;11.55;5.28;;;;;;;14.90;79.11;96352.16;5015166;28;20058;-73
2021/07/02 02:57:27;;;;;;;9.93;5.63;;;;;;;14.85;79.44;96358.66;5014638;28;20033;-74
2021/07/02 02:59:54;;;;;;;7.70;5.78;;;;;;;14.80;79.51;96354.22;5014876;28;20072;-73
2021/07/02 03:02:21;;;;;;;11.85;6.65;;;;;;;14.75;79.52;96351.72;5014445;28;20468;-74
2021/07/02 03:04:48;;;;;;;7.82;5.85;;;;;;;14.69;79.93;96344.88;5014478;28;20045;-73
2021/07/02 03:07:15;;;;;;;8.73;6.30;;;;;;;14.69;80.23;96347.59;5014212;28;20050;-73
2021/07/02 03:09:42;;;;;;;11.35;6.63;;;;;;;14.68;80.31;96348.75;5014508;28;20061;-74
2021/07/02 03:12:08;;;;;;;8.77;6.07;;;;;;;14.64;80.52;96347.84;5014057;28;20050;-73
2021/07/02 03:14:35;;;;;;;8.80;5.63;;;;;;;14.64;80.69;96353.31;5014556;28;20045;-73
2021/07/02 03:17:01;;;;;;;11.27;7.68;;;;;;;14.64;80.81;96353.31;5014314;28;20046;-74
2021/07/02 03:19:28;;;;;;;9.07;6.63;;;;;;;14.68;80.73;96354.25;5014114;28;20049;-74
2021/07/02 03:21:55;;;;;;;13.90;7.18;;;;;;;14.67;80.63;96358.13;5014426;28;20058;-73
2021/07/02 03:24:22;;;;;;;10.18;6.50;;;;;;;14.67;80.60;96349.91;5013790;28;20057;-73
2021/07/02 03:26:49;;;;;;;8.68;6.15;;;;;;;14.64;80.97;96352.53;5014262;28;20046;-73
2021/07/02 03:29:15;;;;;;;12.32;5.78;;;;;;;14.68;80.80;96356.19;5013706;28;20504;-73
2021/07/02 03:31:42;;;;;;;10.65;7.03;;;;;;;14.71;81.06;96352.75;5014214;28;20057;-73
2021/07/02 03:34:08;;;;;;;12.15;6.47;;;;;;;14.73;80.86;96355.94;5013559;28;20060;-75
2021/07/02 03:36:35;;;;;;;11.18;6.50;;;;;;;14.65;80.98;96352.16;5013859;28;20042;-73
2021/07/02 03:39:03;;;;;;;13.80;6.70;;;;;;;14.63;81.22;96357.22;5013996;28;20046;-74
2021/07/02 03:41:30;;;;;;;11.93;7.28;;;;;;;14.59;81.30;96359.03;5013785;28;20505;-74
2021/07/02 03:43:57;;;;;;;14.35;7.28;;;;;;;14.58;81.61;96360.97;5013847;28;20045;-74
2021/07/02 03:46:23;;;;;;;10.57;6.63;;;;;;;14.57;81.66;96355.84;5013669;28;20440;-74
2021/07/02 03:48:50;;;;;;;15.57;7.18;;;;;;;14.52;81.88;96356.09;5013842;28;20520;-74
2021/07/02 03:51:16;;;;;;;13.15;7.10;;;;;;;14.54;81.89;96353.78;5013500;28;20046;-74
2021/07/02 03:53:43;;;;;;;11.63;6.90;;;;;;;14.53;82.18;96357.66;5013958;28;20052;-74
2021/07/02 03:56:10;;;;;;;15.10;7.38;;;;;;;14.47;82.11;96353.53;5013103;28;20046;-75
2021/07/02 03:58:38;;;;;;;9.05;6.50;;;;;;;14.51;82.37;96362.69;5013595;28;20042;-73
2021/07/02 04:01:04;;;;;;;11.88;7.53;;;;;;;14.51;81.98;96362.69;5013681;28;20053;-74
2021/07/02 04:03:32;;;;;;;11.85;7.05;;;;;;;14.53;82.10;96363.16;5013502;28;20057;-74
2021/07/02 04:05:58;;;;;;;11.32;7.07;;;;;;;14.58;81.92;96365.66;5013199;28;20049;-73
2021/07/02 04:08:25;;;;;;;12.35;7.05;;;;;;;14.56;81.83;96363.28;5012959;28;20045;-74
2021/07/02 04:10:52;;;;;;;13.63;7.63;;;;;;;14.58;81.71;96360.19;5013380;28;20049;-74
2021/07/02 04:13:20;;;;;;;11.80;7.00;;;;;;;14.60;81.81;96361.41;5013056;28;20053;-73
2021/07/02 04:15:46;;;;;;;10.50;6.63;;;;;;;14.64;81.89;96366.22;5013430;28;20045;-74
2021/07/02 04:18:13;;;;;;;13.00;7.68;;;;;;;14.69;82.08;96361.31;5012503;28;20046;-73
2021/07/02 04:20:39;;;;;;;13.43;7.75;;;;;;;14.77;81.96;96357.66;5013143;28;20054;-73
2021/07/02 04:23:06;;;;;;;12.52;8.02;;;;;;;14.79;81.10;96360.84;5012501;28;20049;-73
2021/07/02 04:25:33;;;;;;;12.23;8.18;;;;;;;14.75;80.98;96361.88;5012809;28;20042;-74
2021/07/02 04:28:00;;;;;;;11.10;7.47;;;;;;;14.73;81.13;96361.44;5012854;28;20493;-73
2021/07/02 04:30:27;;;;;;;14.45;8.48;;;;;;;14.75;81.13;96361.88;5012300;28;20046;-73
2021/07/02 04:32:54;;;;;;;11.35;7.30;;;;;;;14.76;81.31;96364.25;5012786;28;20127;-73
2021/07/02 04:35:21;;;;;;;11.60;7.47;;;;;;;14.82;81.27;96370.31;5012057;28;20046;-73
2021/07/02 04:37:47;;;;;;;12.00;7.72;;;;;;;14.84;81.31;96368.84;5012341;28;20145;-73
2021/07/02 04:40:14;;;;;;;13.02;8.05;;;;;;;14.85;81.19;96375.13;5012010;28;20057;-73
2021/07/02 04:42:41;;;;;;;11.15;7.07;;;;;;;14.85;81.66;96369.63;5012079;28;20378;-73
2021/07/02 04:45:09;;;;;;;11.80;7.53;;;;;;;14.86;81.33;96369.28;5012081;28;20073;-73
2021/07/02 04:47:37;;;;;;;15.07;7.93;;;;;;;14.87;81.08;96368.13;5012520;28;20133;-73
2021/07/02 04:50:05;;;;;;;11.43;7.07;;;;;;;14.87;81.27;96379.09;5011889;28;20421;-73
2021/07/02 04:52:32;;;;;;;10.60;7.70;;;;;;;14.88;80.94;96374.44;5012353;28;20046;-73
2021/07/02 04:54:58;;;;;;;15.02;8.18;;;;;;;14.86;81.28;96369.28;5012553;28;20049;-73
2021/07/02 04:57:25;;;;;;;12.13;7.68;;;;;;;14.85;81.15;96362.19;5012036;28;20057;-73
2021/07/02 04:59:51;;;;;;;12.05;7.78;;;;;;;14.90;81.26;96366.66;5012426;28;20173;-73
2021/07/02 05:02:18;;;;;;;12.32;8.30;;;;;;;14.93;81.48;96365.97;5011757;28;20046;-78
2021/07/02 05:04:46;;;;;;;11.52;8.00;;;;;;;14.92;81.77;96358.88;5010639;28;20509;-78
2021/07/02 05:07:14;;;;;;;12.95;7.78;;;;;;;14.96;81.26;96375.44;5011815;28;20050;-76
2021/07/02 05:09:41;;;;;;;12.13;8.02;;;;;;;14.99;81.12;96374.75;5012400;28;20045;-77
2021/07/02 05:12:10;;;;;;;12.27;8.32;;;;;;;14.98;81.33;96379.44;5009754;28;20049;-77
2021/07/02 05:14:37;;;;;;;12.30;8.32;;;;;;;15.07;81.60;96377.34;5010756;28;20050;-80
2021/07/02 05:17:05;;;;;;;13.27;7.97;;;;;;;15.08;80.65;96383.63;5006709;28;20058;-77
2021/07/02 05:19:31;;;;;;;11.43;8.10;;;;;;;15.08;80.95;96378.16;5008725;28;20065;-78
2021/07/02 05:21:59;;;;;;;14.70;9.00;;;;;;;15.11;80.35;96383.75;5007994;28;20049;-77
2021/07/02 05:24:26;;;;;;;12.40;8.13;;;;;;;15.18;80.44;96385.09;5007120;28;20049;-77
2021/07/02 05:26:52;;;;;;;12.43;7.95;;;;;;;15.26;80.32;96376.75;5008829;28;20050;-78
2021/07/02 05:29:18;;;;;;;12.85;8.43;;;;;;;15.31;80.13;96382.00;5008388;28;20046;-78
2021/07/02 05:31:45;;;;;;;17.00;9.15;;;;;;;15.35;80.38;96382.09;5008639;28;20054;-77
2021/07/02 05:34:11;;;;;;;11.52;8.73;;;;;;;15.40;78.58;96379.91;5008083;28;20576;-78
2021/07/02 05:36:38;;;;;;;16.50;7.95;;;;;;;15.43;78.40;96383.09;5008701;28;20045;-77
2021/07/02 05:39:06;;;;;;;14.02;9.20;;;;;;;15.46;78.50;96388.69;5008452;28;20046;-77
2021/07/02 05:41:32;;;;;;;12.38;8.05;;;;;;;15.51;78.96;96393.94;5008425;28;20046;-76
2021/07/02 05:43:59;;;;;;;18.30;8.50;;;;;;;15.55;78.49;96396.75;5008228;28;20046;-78
2021/07/02 05:46:25;;;;;;;13.70;8.77;;;;;;;15.56;77.73;96399.19;5007637;28;20056;-77
2021/07/02 05:48:51;;;;;;;11.60;8.25;;;;;;;15.61;78.29;96395.38;5008194;28;20390;-77
2021/07/02 05:51:18;;;;;;;14.82;8.30;;;;;;;15.62;77.87;96399.72;5007848;28;20061;-76
2021/07/02 05:53:44;;;;;;;12.73;8.05;;;;;;;15.65;77.77;96402.56;5007724;28;20062;-77
2021/07/02 05:56:12;;;;;;;15.43;7.97;;;;;;;15.67;77.80;96399.50;5007269;28;20057;-77
2021/07/02 05:58:39;;;;;;;12.13;7.20;;;;;;;15.74;77.66;96405.19;5008215;28;20050;-77
2021/07/02 06:01:05;;;;;;;13.90;8.18;;;;;;;15.80;77.00;96398.28;5007981;28;20054;-78
2021/07/02 06:03:32;;;;;;;12.20;7.78;;;;;;;15.83;76.80;96400.34;5008196;28;20061;-77
2021/07/02 06:05:58;;;;;;;12.98;7.93;;;;;;;15.87;77.49;96401.25;5008163;28;20049;-76
2021/07/02 06:08:25;;;;;;;13.63;7.25;;;;;;;15.95;76.97;96415.16;5008187;28;20568;-77
2021/07/02 06:10:52;;;;;;;13.95;6.93;;;;;;;15.97;77.16;96407.34;5008316;28;20066;-77
2021/07/02 06:13:19;;;;;;;13.85;7.35;;;;;;;16.03;77.42;96416.97;5007995;28;20061;-77
2021/07/02 06:15:46;;;;;;;13.50;7.30;;;;;;;16.08;75.72;96409.25;5008221;28;20050;-77
2021/07/02 06:18:12;;;;;;;14.68;6.45;;;;;;;16.13;73.22;96421.91;5008031;28;20089;-78
2021/07/02 06:20:39;;;;;;;11.60;6.25;;;;;;;16.16;73.88;96415.72;5008481;28;20053;-77
2021/07/02 06:23:06;;;;;;;10.65;6.50;;;;;;;16.23;74.06;96415.91;5007853;28;20460;-77
2021/07/02 06:25:32;;;;;;;9.77;6.50;;;;;;;16.29;73.57;96408.22;5007996;28;20046;-78
2021/07/02 06:27:59;;;;;;;10.20;6.22;;;;;;;16.32;72.56;96408.28;5008192;28;20050;-76
2021/07/02 06:30:27;;;;;;;9.98;6.18;;;;;;;16.39;72.66;96414.00;5007373;28;20046;-77
2021/07/02 06:32:54;;;;;;;9.95;6.00;;;;;;;16.41;73.98;96408.13;5008437;28;20050;-76
2021/07/02 06:35:21;;;;;;;10.23;5.82;;;;;;;16.43;73.71;96419.56;5007614;28;20061;-76
2021/07/02 06:37:50;;;;;;;8.70;5.97;;;;;;;16.47;71.85;96423.19;5008216;28;20046;-78
2021/07/02 06:40:17;;;;;;;8.65;5.72;;;;;;;16.50;71.21;96424.47;5007824;28;20057;-76
2021/07/02 06:42:43;;;;;;;9.23;5.65;;;;;;;16.50;70.77;96424.47;5008098;28;20057;-77
2021/07/02 06:45:12;;;;;;;10.57;5.75;;;;;;;16.45;71.43;96422.78;5007455;28;20064;-76
2021/07/02 06:47:55;;;;;;;13.95;5.43;;;;;;;16.44;72.31;96421.16;5008088;28;20500;-77
2021/07/02 06:50:21;;;;;;;12.20;5.47;;;;;;;16.51;71.20;96423.28;5008063;28;20321;-77
2021/07/02 06:52:48;;;;;;;9.05;5.93;;;;;;;16.53;72.23;96420.97;5008363;28;20056;-76
2021/07/02 06:55:14;;;;;;;8.30;5.53;;;;;;;16.55;72.23;96427.72;5007417;28;20428;-78
2021/07/02 06:57:41;;;;;;;12.15;6.25;;;;;;;16.62;73.01;96424.34;5007786;28;20501;-78
2021/07/02 07:00:08;;;;;;;11.32;6.50;;;;;;;16.60;73.37;96437.63;5007118;28;20050;-77
2021/07/02 07:02:35;;;;;;;8.05;5.35;;;;;;;16.63;71.31;96428.69;5007813;28;20057;-77
2021/07/02 07:05:03;;;;;;;15.05;6.28;;;;;;;16.64;71.93;96424.78;5007068;28;20046;-75
2021/07/02 07:07:30;;;;;;;9.40;6.07;;;;;;;16.63;71.88;96428.69;5011198;28;20524;-77
2021/07/02 07:09:56;;;;;;;13.02;7.05;;;;;;;16.59;72.28;96430.56;5011753;28;20144;-76
2021/07/02 07:12:23;;;;;;;11.82;6.57;;;;;;;16.64;72.50;96435.78;5011000;28;20053;-77
2021/07/02 07:14:49;;;;;;;10.57;6.18;;;;;;;16.72;71.53;96436.81;5011355;28;20060;-77
2021/07/02 07:17:16;;;;;;;9.18;6.28;;;;;;;16.75;72.37;96436.88;5010745;28;20049;-77
2021/07/02 07:19:43;;;;;;;9.57;6.07;;;;;;;16.69;71.81;96438.28;5011241;28;20054;-77
2021/07/02 07:22:11;;;;;;;11.43;6.47;;;;;;;16.67;71.20;96440.59;5010687;28;20148;-78
2021/07/02 07:24:37;;;;;;;14.35;6.30;;;;;;;16.63;72.15;96440.50;5011034;28;20061;-79
2021/07/02 07:27:04;;;;;;;10.23;6.47;;;;;;;16.59;71.51;96433.31;5010635;28;20052;-78
2021/07/02 07:29:31;;;;;;;12.63;6.82;;;;;;;16.54;72.50;96442.59;5011160;28;20049;-77
2021/07/02 07:31:58;;;;;;;11.70;6.30;;;;;;;16.53;73.51;96446.50;5011135;28;20053;-78
2021/07/02 07:34:31;;;;;;;10.32;6.03;;;;;;;16.56;73.07;96440.31;5010435;28;20065;-77
2021/07/02 07:37:01;;;;;;;12.20;6.50;;;;;;;16.60;71.05;96443.13;5010888;28;20586;-77
2021/07/02 07:39:29;;;;;;;8.82;6.40;;;;;;;16.62;70.59;96444.41;5010594;28;20566;-77
2021/07/02 07:41:55;;;;;;;12.60;6.95;;;;;;;16.60;71.14;96440.38;5010999;28;20048;-79
2021/07/02 07:44:22;;;;;;;10.10;6.78;;;;;;;16.61;70.45;96437.31;5010267;28;20049;-76
2021/07/02 07:46:48;;;;;;;13.32;6.07;;;;;;;16.63;70.92;96450.69;5010833;28;20080;-76
2021/07/02 07:49:15;;;;;;;11.55;6.40;;;;;;;16.67;71.39;96446.09;5010541;28;20049;-76
2021/07/02 07:51:46;;;;;;;13.45;6.38;;;;;;;16.62;70.07;96449.91;5010816;28;20054;-77
2021/07/02 07:54:13;;;;;;;10.40;5.82;;;;;;;16.71;69.27;96447.00;5010272;28;20056;-75
2021/07/02 07:56:49;;;;;;;9.57;5.93;;;;;;;16.79;68.29;96447.97;5010598;28;20041;-76
2021/07/02 07:59:16;;;;;;;10.77;5.90;;;;;;;16.84;68.55;96450.44;5012164;28;20050;-76
2021/07/02 08:01:43;;;;;;;10.52;5.38;;;;;;;16.87;68.77;96445.03;5013427;28;20052;-75
2021/07/02 08:04:10;;;;;;;8.70;5.88;;;;;;;16.89;68.09;96445.47;5012875;28;20058;-78
2021/07/02 08:06:36;;;;;;;8.73;4.97;;;;;;;16.97;65.91;96453.91;5013035;28;20046;-77
2021/07/02 08:09:03;;;;;;;7.35;5.13;;;;;;;16.97;66.95;96442.91;5013120;28;20057;-76
2021/07/02 08:11:29;;;;;;;12.63;5.43;;;;;;;17.00;66.25;96451.22;5013447;28;20056;-76
2021/07/02 08:13:57;;;;;;;9.80;4.93;;;;;;;17.09;64.86;96456.56;5013381;28;20054;-77
2021/07/02 08:16:25;;;;;;;9.15;5.35;;;;;;;17.06;65.13;96460.00;5012041;28;20046;-77
2021/07/02 08:18:52;;;;;;;9.95;5.53;;;;;;;17.04;65.89;96462.31;5012390;28;20052;-76
2021/07/02 08:21:18;;;;;;;18.30;5.38;;;;;;;17.07;65.78;96461.59;5012899;28;20050;-78
2021/07/02 08:23:45;;;;;;;9.63;5.53;;;;;;;17.04;65.96;96454.88;5013216;28;20046;-76
2021/07/02 08:26:13;;;;;;;9.57;5.28;;;;;;;17.11;66.56;96459.72;5012685;28;20053;-77
2021/07/02 08:31:25;;;;;;;8.75;5.40;;;;;;;17.20;67.25;96463.88;5012822;28;20177;-77
2021/07/02 08:33:51;;;;;;;11.05;6.53;;;;;;;17.28;67.08;96470.38;5012915;28;20409;-77
2021/07/02 08:36:18;;;;;;;8.60;5.40;;;;;;;17.47;66.94;96473.16;5012487;28;20045;-76
2021/07/02 08:38:44;;;;;;;8.85;5.25;;;;;;;17.66;65.06;96471.59;5012744;28;20042;-77
2021/07/02 08:41:13;;;;;;;9.05;4.88;;;;;;;17.66;64.37;96466.09;5012734;28;20049;-78
2021/07/02 08:43:40;;;;;;;9.30;5.50;;;;;;;17.79;65.17;96462.03;5012797;28;20044;-77
2021/07/02 08:46:10;;;;;;;9.30;5.75;;;;;;;18.06;66.23;96475.97;5012479;28;20045;-76
2021/07/02 08:48:39;;;;;;;8.43;5.13;;;;;;;18.06;65.51;96471.25;5012689;28;20508;-78
2021/07/02 08:51:06;;;;;;;11.15;5.85;;;;;;;17.93;63.56;96473.38;5012220;28;20045;-78
2021/07/02 08:53:34;;;;;;;8.15;5.30;;;;;;;17.96;65.32;96467.13;5012834;28;20382;-78
2021/07/02 08:56:03;;;;;;;8.95;5.07;;;;;;;17.88;63.53;96459.88;5012570;28;20060;-78
2021/07/02 08:58:30;;;;;;;10.68;5.22;;;;;;;17.90;64.18;96463.06;5012427;28;20038;-77
2021/07/02 09:00:57;;;;;;;8.45;5.57;;;;;;;18.13;67.74;96470.59;5012447;28;20045;-78
2021/07/02 09:03:28;;;;;;;8.27;5.32;;;;;;;18.48;65.31;96465.78;5012149;28;20512;-77
2021/07/02 09:05:56;;;;;;;8.43;5.40;;;;;;;18.96;64.85;96462.66;5012262;28;20050;-77
2021/07/02 09:08:24;;;;;;;12.55;6.03;;;;;;;19.45;68.20;96461.81;5011897;28;20045;-77
2021/07/02 09:10:50;;;;;;;8.20;5.32;;;;;;;19.58;63.13;96459.66;5012471;28;20130;-77
2021/07/02 09:13:17;;;;;;;9.23;5.40;;;;;;;19.51;59.77;96460.31;5011859;28;20050;-77
2021/07/02 09:15:44;;;;;;;10.90;6.00;;;;;;;19.32;59.82;96464.00;5012130;28;20647;-77
2021/07/02 09:18:12;;;;;;;11.25;6.03;;;;;;;19.02;58.90;96467.50;5011907;28;20046;-77
2021/07/02 09:20:40;;;;;;;9.77;5.80;;;;;;;18.82;61.06;96457.69;5012141;28;20505;-78
2021/07/02 09:23:10;;;;;;;16.15;6.00;;;;;;;18.89;65.48;96457.81;5011668;28;20050;-77
2021/07/02 09:25:39;;;;;;;7.53;5.60;;;;;;;19.26;67.91;96459.97;5012204;28;20045;-77
2021/07/02 09:28:07;;;;;;;12.32;5.53;;;;;;;19.62;64.50;96452.22;5011485;28;20084;-80
2021/07/02 09:30:36;;;;;;;8.43;5.38;;;;;;;19.71;61.51;96447.22;5011877;28;20042;-77
2021/07/02 09:33:05;;;;;;;11.27;6.20;;;;;;;19.83;60.48;96455.25;5011508;28;20042;-77
2021/07/02 09:35:35;;;;;;;12.55;6.18;;;;;;;19.82;59.99;96456.44;5011841;28;20042;-79
2021/07/02 09:38:03;;;;;;;13.27;5.53;;;;;;;19.72;59.62;96460.63;5011335;28;20132;-73
2021/07/02 09:40:33;;;;;;;9.35;5.68;;;;;;;19.54;59.13;96465.13;5011720;28;20046;-78
2021/07/02 09:43:02;;;;;;;8.50;5.45;;;;;;;19.35;60.04;96466.00;5011952;28;20050;-78
2021/07/02 09:45:29;;;;;;;13.27;6.05;;;;;;;19.19;59.77;96459.84;5011704;28;20053;-78
2021/07/02 09:47:57;;;;;;;10.10;6.35;;;;;;;19.07;60.82;96457.31;5011715;28;20050;-77
2021/07/02 09:50:26;;;;;;;8.10;5.28;;;;;;;19.21;61.75;96458.34;5011074;28;20076;-80
2021/07/02 09:52:58;;;;;;;7.10;5.03;;;;;;;19.28;58.59;96457.63;5011656;28;20057;-77
2021/07/02 09:55:26;;;;;;;7.40;4.82;;;;;;;19.48;58.95;96461.88;5011068;28;20101;-78
2021/07/02 09:58:05;;;;;;;7.25;5.00;;;;;;;19.58;59.84;96459.66;5011409;28;20049;-78
2021/07/02 10:00:33;;;;;;;10.77;5.68;;;;;;;19.71;62.09;96458.25;5011055;28;20481;-77
2021/07/02 10:03:02;;;;;;;7.75;5.05;;;;;;;20.01;63.39;96461.81;5011496;28;20046;-77
2021/07/02 10:05:29;;;;;;;7.50;5.32;;;;;;;20.40;60.38;96464.19;5011066;28;20066;-76
2021/07/02 10:08:00;;;;;;;6.65;4.50;;;;;;;20.55;60.47;96462.41;5011328;28;20061;-75
2021/07/02 10:10:29;;;;;;;9.82;4.85;;;;;;;20.48;58.72;96454.84;5011134;28;20517;-76
2021/07/02 10:12:57;;;;;;;9.82;5.20;;;;;;;20.36;55.94;96463.41;5011503;28;20073;-77
2021/07/02 10:15:26;;;;;;;9.07;4.82;;;;;;;20.45;57.56;96463.06;5010786;28;20046;-76
2021/07/02 10:17:56;;;;;;;12.93;5.22;;;;;;;20.72;58.41;96449.91;5011241;28;20045;-77
2021/07/02 10:20:23;;;;;;;9.80;5.30;;;;;;;21.03;60.61;96449.38;5010941;28;20096;-78
2021/07/02 10:22:51;;;;;;;9.00;5.40;;;;;;;21.26;56.34;96451.16;5011152;28;20065;-77
2021/07/02 10:25:19;;;;;;;10.73;5.10;;;;;;;21.28;53.66;96454.31;5010839;28;20045;-77
2021/07/02 10:27:47;;;;;;;8.45;4.50;;;;;;;21.16;54.49;96457.41;5011282;28;20049;-77
2021/07/02 10:30:14;;;;;;;6.63;4.82;;;;;;;21.27;57.70;96455.50;5010734;28;20057;-77
2021/07/02 10:32:43;;;;;;;7.70;4.90;;;;;;;21.40;56.50;96445.72;5011346;28;20493;-79
2021/07/02 10:35:14;;;;;;;7.55;4.65;;;;;;;21.31;51.89;96459.13;5010587;28;20046;-78
2021/07/02 10:37:43;;;;;;;6.95;4.55;;;;;;;21.14;54.39;96459.75;5011014;28;20038;-77
2021/07/02 10:40:39;;;;;;;7.75;4.80;;;;;;;21.14;55.57;96456.97;5010695;28;20046;-77
2021/07/02 10:43:06;;;;;;;9.20;5.28;;;;;;;21.12;56.46;96460.16;4990887;28;20050;-77
2021/07/02 10:45:33;;;;;;;15.27;5.30;;;;;;;21.18;58.07;96466.13;5015044;28;20046;-77
2021/07/02 10:48:01;;;;;;;9.07;4.70;;;;;;;21.25;54.47;96450.38;5015103;28;20061;-77
2021/07/02 10:50:44;;;;;;;8.85;4.95;;;;;;;21.38;51.19;96459.19;5014536;28;20125;-78
2021/07/02 10:53:25;;;;;;;10.05;4.50;;;;;;;21.40;52.66;96444.94;5014433;28;20069;-78
2021/07/02 10:55:52;;;;;;;9.13;5.20;;;;;;;21.14;51.09;96451.44;5014703;28;20057;-77
2021/07/02 10:58:20;;;;;;;8.75;5.05;;;;;;;21.10;54.21;96449.47;5014531;28;20050;-77
2021/07/02 11:01:09;;;;;;;9.73;4.75;;;;;;;21.18;55.59;96452.28;5014801;28;20501;-77
2021/07/02 11:03:38;;;;;;;9.80;4.68;;;;;;;21.23;50.59;96451.91;5014590;28;20511;-78
2021/07/02 11:06:38;;;;;;;8.77;4.50;;;;;;;21.33;53.11;96456.75;5019534;28;20538;-77
2021/07/02 11:09:05;;;;;;;11.43;5.78;;;;;;;21.32;51.83;96457.94;5014147;28;20563;-78
2021/07/02 11:12:08;;;;;;;8.65;4.85;;;;;;;21.35;53.01;96452.44;5014337;28;20747;-78
2021/07/02 11:14:34;;;;;;;8.63;4.80;;;;;;;21.25;52.35;96450.38;5014504;28;20046;-78
2021/07/02 11:17:29;;;;;;;8.18;5.53;;;;;;;21.06;51.57;96453.38;5014650;28;20042;-77
2021/07/02 11:20:30;;;;;;;10.20;5.65;;;;;;;20.84;49.95;96446.88;4979166;28;20096;-80
2021/07/02 11:23:40;;;;;;;7.70;4.88;;;;;;;20.85;52.69;96454.00;5014462;28;20490;-77
2021/07/02 11:26:08;;;;;;;8.35;5.47;;;;;;;21.03;58.26;96448.59;5013443;28;20117;-77
2021/07/02 11:28:50;;;;;;;9.30;4.65;;;;;;;21.21;51.84;96440.44;5014289;28;20038;-78
2021/07/02 11:31:18;;;;;;;8.13;5.00;;;;;;;21.38;56.54;96442.56;5013590;28;20049;-78
2021/07/02 11:33:45;;;;;;;14.85;5.20;;;;;;;21.56;52.13;96445.41;5014385;28;20041;-78
2021/07/02 11:36:22;;;;;;;10.50;4.20;;;;;;;21.71;50.49;96446.28;5013545;28;20046;-77